createdAt,value
2022-11-29T00:00:02.915Z,101202.86
2022-11-29T00:05:26.233Z,101196.54
2022-11-29T00:10:29.359Z,101199.03
2022-11-29T00:15:36.814Z,101198.75
2022-11-29T00:20:39.885Z,101202.76
2022-11-29T00:25:42.584Z,101199.21
2022-11-29T00:30:45.388Z,101200.41
2022-11-29T00:35:48.242Z,101201.48
2022-11-29T00:40:52.661Z,101204.95
2022-11-29T00:45:55.455Z,101205.70
2022-11-29T00:50:58.274Z,101207.59
2022-11-29T00:56:01.775Z,101205.36
2022-11-29T01:01:05.765Z,101206.58
2022-11-29T01:06:11.409Z,101207.64
2022-11-29T01:11:18.289Z,101203.39
2022-11-29T01:16:21.027Z,101200.33
2022-11-29T01:21:25.117Z,101195.21
2022-11-29T01:26:30.265Z,101187.32
2022-11-29T01:31:38.218Z,101186.27
2022-11-29T01:36:41.009Z,101190.73
2022-11-29T01:41:43.710Z,101183.73
2022-11-29T01:46:47.811Z,101185.30
2022-11-29T01:51:54.617Z,101184.27
2022-11-29T01:56:59.491Z,101183.11
2022-11-29T02:02:12.221Z,101178.16
2022-11-29T02:07:15.853Z,101178.34
2022-11-29T02:12:39.407Z,101173.39
2022-11-29T02:18:02.645Z,101173.23
2022-11-29T02:23:22.490Z,101173.44
2022-11-29T02:29:09.767Z,101173.09
2022-11-29T02:34:15.192Z,101177.73
2022-11-29T02:39:42.796Z,101184.08
2022-11-29T02:45:09.645Z,101178.26
2022-11-29T02:50:20.184Z,101185.48
2022-11-29T02:55:43.449Z,101186.35
2022-11-29T03:01:16.691Z,101188.41
2022-11-29T03:06:31.636Z,101191.66
2022-11-29T03:12:01.960Z,101196.64
2022-11-29T03:17:23.620Z,101197.82
2022-11-29T03:22:29.185Z,101194.73
2022-11-29T03:27:43.770Z,101196.97
2022-11-29T03:32:55.506Z,101195.08
2022-11-29T03:38:11.237Z,101197.82
2022-11-29T03:43:21.337Z,101197.48
2022-11-29T03:48:31.926Z,101197.66
2022-11-29T03:53:48.026Z,101205.02
2022-11-29T03:59:20.140Z,101201.93
2022-11-29T04:04:50.792Z,101205.21
2022-11-29T04:10:09.056Z,101210.88
2022-11-29T04:15:49.982Z,101209.14
2022-11-29T04:21:04.835Z,101207.80
2022-11-29T04:26:45.305Z,101214.33
2022-11-29T04:32:17.001Z,101216.04
2022-11-29T04:37:38.435Z,101221.19
2022-11-29T04:43:12.998Z,101222.38
2022-11-29T04:48:24.700Z,101223.41
2022-11-29T04:53:48.981Z,101230.27
2022-11-29T04:59:17.912Z,101229.59
2022-11-29T05:04:32.164Z,101235.24
2022-11-29T05:09:59.568Z,101236.61
2022-11-29T05:15:34.103Z,101238.98
2022-11-29T05:21:16.955Z,101239.86
2022-11-29T05:26:22.299Z,101239.01
2022-11-29T05:31:29.444Z,101238.48
2022-11-29T05:36:57.507Z,101240.20
2022-11-29T05:42:20.221Z,101243.45
2022-11-29T05:47:48.978Z,101247.91
2022-11-29T05:53:02.115Z,101248.73
2022-11-29T05:58:30.742Z,101248.59
2022-11-29T06:03:40.676Z,101252.17
2022-11-29T06:08:47.939Z,101254.40
2022-11-29T06:14:20.219Z,101255.94
2022-11-29T06:19:32.934Z,101259.71
2022-11-29T06:25:00.048Z,101258.67
2022-11-29T06:30:15.228Z,101271.36
2022-11-29T06:35:36.222Z,101289.36
2022-11-29T06:40:39.236Z,101296.55
2022-11-29T06:45:49.136Z,101304.95
2022-11-29T06:51:21.089Z,101311.11
2022-11-29T06:56:41.720Z,101309.88
2022-11-29T07:01:44.572Z,101307.47
2022-11-29T07:06:47.950Z,101307.27
2022-11-29T07:11:51.188Z,101309.35
2022-11-29T07:17:21.117Z,101311.73
2022-11-29T07:22:41.685Z,101314.30
2022-11-29T07:28:00.811Z,101308.29
2022-11-29T07:33:48.339Z,101311.73
2022-11-29T07:39:09.758Z,101320.48
2022-11-29T07:44:27.810Z,101319.65
2022-11-29T07:49:30.615Z,101318.11
2022-11-29T07:54:36.551Z,101322.39
2022-11-29T07:59:41.440Z,101328.23
2022-11-29T08:04:44.769Z,101328.23
2022-11-29T08:09:48.706Z,101324.10
2022-11-29T08:14:51.829Z,101331.79
2022-11-29T08:19:54.540Z,101329.73
2022-11-29T08:24:58.061Z,101329.52
2022-11-29T08:30:00.782Z,101335.20
2022-11-29T08:35:03.981Z,101339.48
2022-11-29T08:40:07.969Z,101340.52
2022-11-29T08:45:11.892Z,101346.39
2022-11-29T08:50:17.899Z,101345.52
2022-11-29T08:55:22.703Z,101346.70
2022-11-29T09:00:25.414Z,101350.48
2022-11-29T09:05:28.200Z,101351.66
2022-11-29T09:10:30.912Z,101354.59
2022-11-29T09:15:33.902Z,101350.30
2022-11-29T09:20:37.012Z,101343.77
2022-11-29T09:25:39.943Z,101343.27
2022-11-29T09:30:42.622Z,101343.41
2022-11-29T09:35:46.157Z,101340.48
2022-11-29T09:40:54.359Z,101337.92
2022-11-29T09:46:16.054Z,101334.52
2022-11-29T09:51:48.818Z,101334.67
2022-11-29T09:56:55.494Z,101330.02
2022-11-29T10:02:38.713Z,101331.77
2022-11-29T10:07:49.083Z,101331.58
2022-11-29T10:13:00.365Z,101338.09
2022-11-29T10:18:23.411Z,101339.29
2022-11-29T10:23:58.437Z,101338.58
2022-11-29T10:29:01.296Z,101342.01
2022-11-29T10:34:16.664Z,101336.36
2022-11-29T10:39:42.176Z,101341.00
2022-11-29T10:44:45.009Z,101346.66
2022-11-29T10:49:48.578Z,101345.80
2022-11-29T10:54:56.311Z,101350.60
2022-11-29T11:00:06.987Z,101350.09
2022-11-29T11:05:18.780Z,101354.88
2022-11-29T11:10:27.221Z,101357.96
2022-11-29T11:15:33.915Z,101358.13
2022-11-29T11:20:39.807Z,101361.06
2022-11-29T11:25:42.675Z,101361.73
2022-11-29T11:30:58.040Z,101362.77
2022-11-29T11:36:09.745Z,101359.35
2022-11-29T11:41:51.939Z,101362.11
2022-11-29T11:46:55.085Z,101362.78
2022-11-29T11:51:59.610Z,101362.60
2022-11-29T11:57:03.369Z,101361.77
2022-11-29T12:02:25.612Z,101365.20
2022-11-29T12:08:06.829Z,101367.43
2022-11-29T12:13:04.255Z,101369.49
2022-11-29T12:18:28.184Z,101373.26
2022-11-29T12:23:34.984Z,101371.02
2022-11-29T12:28:40.793Z,101368.80
2022-11-29T12:33:55.618Z,101377.03
2022-11-29T12:39:20.268Z,101376.02
2022-11-29T12:45:00.943Z,101375.49
2022-11-29T12:50:38.838Z,101377.41
2022-11-29T12:56:20.711Z,101380.53
2022-11-29T13:01:43.836Z,101377.81
2022-11-29T13:06:55.238Z,101382.77
2022-11-29T13:12:03.563Z,101385.68
2022-11-29T13:17:22.724Z,101388.26
2022-11-29T13:22:54.292Z,101399.08
2022-11-29T13:28:28.100Z,101401.30
2022-11-29T13:33:40.228Z,101405.23
2022-11-29T13:38:55.921Z,101409.69
2022-11-29T13:44:18.085Z,101411.41
2022-11-29T13:49:42.426Z,101411.44
2022-11-29T13:54:45.616Z,101416.08
2022-11-29T13:59:50.321Z,101416.08
2022-11-29T14:04:53.284Z,101419.69
2022-11-29T14:10:03.383Z,101419.18
2022-11-29T14:15:35.404Z,101427.06
2022-11-29T14:20:44.788Z,101423.98
2022-11-29T14:25:56.445Z,101424.68
2022-11-29T14:31:02.105Z,101427.77
2022-11-29T14:36:14.529Z,101428.97
2022-11-29T14:41:22.645Z,101427.42
2022-11-29T14:46:30.987Z,101429.84
2022-11-29T14:51:35.199Z,101431.39
2022-11-29T14:56:44.535Z,101430.73
2022-11-29T15:01:49.106Z,101439.98
2022-11-29T15:06:56.087Z,101442.20
2022-11-29T15:12:08.930Z,101448.73
2022-11-29T15:17:32.900Z,101446.86
2022-11-29T15:22:54.193Z,101443.95
2022-11-29T15:27:59.799Z,101438.65
2022-11-29T15:33:06.148Z,101439.36
2022-11-29T15:38:18.176Z,101446.89
2022-11-29T15:43:36.053Z,101453.24
2022-11-29T15:48:38.791Z,101455.11
2022-11-29T15:54:15.594Z,101462.13
2022-11-29T15:59:30.481Z,101457.17
2022-11-29T16:04:39.057Z,101459.06
2022-11-29T16:09:53.272Z,101466.42
2022-11-29T16:14:58.667Z,101464.90
2022-11-29T16:20:06.096Z,101468.66
2022-11-29T16:25:18.808Z,101472.27
2022-11-29T16:30:23.947Z,101475.02
2022-11-29T16:35:33.816Z,101489.06
2022-11-29T16:40:36.571Z,101486.50
2022-11-29T16:45:41.547Z,101482.20
2022-11-29T16:50:46.197Z,101489.58
2022-11-29T16:55:49.713Z,101490.42
2022-11-29T17:00:52.474Z,101494.71
2022-11-29T17:05:55.657Z,101489.73
2022-11-29T17:10:58.435Z,101499.35
2022-11-29T17:16:01.139Z,101498.83
2022-11-29T17:21:04.648Z,101496.59
2022-11-29T17:26:07.761Z,101502.42
2022-11-29T17:31:15.936Z,101504.14
2022-11-29T17:36:20.407Z,101508.08
2022-11-29T17:41:25.347Z,101515.63
2022-11-29T17:46:34.113Z,101513.41
2022-11-29T17:51:54.309Z,101509.11
2022-11-29T17:56:57.225Z,101511.02
2022-11-29T18:02:02.232Z,101519.57
2022-11-29T18:07:05.711Z,101520.45
2022-11-29T18:12:08.973Z,101518.72
2022-11-29T18:17:11.878Z,101523.86
2022-11-29T18:22:14.691Z,101521.98
2022-11-29T18:27:17.528Z,101518.04
2022-11-29T18:32:20.331Z,101516.66
2022-11-29T18:37:46.109Z,101526.44
2022-11-29T18:42:45.902Z,101526.09
2022-11-29T18:47:48.707Z,101530.89
2022-11-29T18:52:54.268Z,101526.27
2022-11-29T18:57:57.148Z,101522.66
2022-11-29T19:02:59.849Z,101525.05
2022-11-29T19:08:02.715Z,101526.95
2022-11-29T19:13:05.680Z,101526.09
2022-11-29T19:18:08.433Z,101529.02
2022-11-29T19:23:11.389Z,101532.27
2022-11-29T19:28:14.606Z,101532.09
2022-11-29T19:33:17.558Z,101533.45
2022-11-29T19:38:20.323Z,101542.38
2022-11-29T19:43:23.102Z,101544.09
2022-11-29T19:48:25.827Z,101543.59
2022-11-29T19:53:29.679Z,101551.13
2022-11-29T19:58:33.173Z,101556.96
2022-11-29T20:03:35.936Z,101554.05
2022-11-29T20:08:38.744Z,101560.55
2022-11-29T20:13:43.355Z,101560.56
2022-11-29T20:18:50.876Z,101559.70
2022-11-29T20:23:58.816Z,101562.29
2022-11-29T20:29:02.358Z,101563.66
2022-11-29T20:34:06.760Z,101572.22
2022-11-29T20:39:29.538Z,101572.57
2022-11-29T20:44:54.301Z,101573.60
2022-11-29T20:49:57.788Z,101573.07
2022-11-29T20:55:00.890Z,101573.60
2022-11-29T21:00:05.897Z,101577.89
2022-11-29T21:05:09.059Z,101572.39
2022-11-29T21:10:15.002Z,101576.67
2022-11-29T21:15:18.432Z,101584.05
2022-11-29T21:20:24.135Z,101582.68
2022-11-29T21:25:53.032Z,101581.98
2022-11-29T21:30:56.197Z,101583.20
2022-11-29T21:35:59.066Z,101593.80
2022-11-29T21:41:01.843Z,101598.79
2022-11-29T21:46:04.689Z,101596.54
2022-11-29T21:51:09.689Z,101599.13
2022-11-29T21:56:12.502Z,101601.17
2022-11-29T22:01:17.950Z,101604.96
2022-11-29T22:06:24.195Z,101603.23
2022-11-29T22:11:35.433Z,101608.55
2022-11-29T22:16:38.554Z,101607.88
2022-11-29T22:21:42.882Z,101611.47
2022-11-29T22:26:46.742Z,101601.19
2022-11-29T22:31:53.118Z,101608.38
2022-11-29T22:36:56.060Z,101611.80
2022-11-29T22:41:58.805Z,101608.89
2022-11-29T22:47:01.541Z,101613.69
2022-11-29T22:52:04.467Z,101610.41
2022-11-29T22:57:07.316Z,101612.98
2022-11-29T23:02:10.247Z,101611.09
2022-11-29T23:07:13.109Z,101608.20
2022-11-29T23:12:15.922Z,101614.19
2022-11-29T23:17:18.666Z,101611.11
2022-11-29T23:22:21.950Z,101613.15
2022-11-29T23:27:24.884Z,101615.05
2022-11-29T23:32:27.749Z,101605.98
2022-11-29T23:37:30.530Z,101603.08
2022-11-29T23:42:33.346Z,101605.30
2022-11-29T23:47:36.056Z,101608.38
2022-11-29T23:52:38.783Z,101609.06
2022-11-29T23:57:41.543Z,101603.08
